ロゾー の空港の天気 - METARとTAF

ケインフィールド空港 ( TDCF / DCF ) - ドミニカ国 ロゾー
飛行場実況気象(Metar)
観測時間12/03 16:00 AST (12/03 20:00 UTC)
風向・風速東北東 4m/s
視程10km以上
天気現象
少しの雲 雲底高度 700m
気温28℃
湿度58%
気圧1011hPa
METARTDCF 032000Z 07007KT 9999 FEW023 28/19 Q1011
過去の天気等 Google飛行場航空写真 Wunderground天気予報

過去48時間のMETAR

飛行場予報(TAF)
データがありません